Airfield :
LOGIN :

Register | Disclaimer

   EN    FR    IT 

 










Legend :    VFR   Marginal VFR   IFR   Intensive IFR   Very Intensive IFR
Visi :
Ceiling :
>= 8 km
>= 3000ft
5 to 8 km
1000 to 3000 ft
1500m to 5 km
500 to 1000 ft
800 to 1500m
200 to 500 ft
< 800m
< 200 ft
Symbols :   Thunderstorms  Fog  Heavy snow  Heavy precipitations  Wind > 20 kt
SIGMETs :     Misc.  Thunderstorms  Icing  Turbulence  Mountain Waves  Volcanic Ashes







- Airport Elevation : 233 ft
- IATA code : REU


LERS - Reus Tarragona

CURRENT METAR :
  • 251430Z 09011KT 040V140 9999 FEW025 25/19 Q1016

EXPIRED METARs :
  • 251400Z 11009KT 050V170 9999 FEW022 26/20 Q1017
  • 251330Z 12009KT 070V180 9999 FEW022 25/20 Q1017
  • 251300Z 12007KT 060V160 9999 FEW022 26/20 Q1017
  • 251230Z 11007KT 050V160 9999 FEW022 26/20 Q1017
  • 251200Z 13007KT 080V170 9999 FEW025 26/20 Q1017

TAF TAF LERS
Valid from the 25 at 15:00 until the 26 at 15:00 UTC


251400Z 2515/2615 12008KT 9999 FEW025 TX26/2613Z TN16/2606Z
TEMPO 2518/2601 VRB03KT
BECMG 2523/2601 30007KT
PROB30
TEMPO 2515/2520 FEW030CB
PROB30
TEMPO 2517/2603 BKN018
BECMG 2610/2612 17008KT
No reported NOTAMs for that airfield.
1 SIGMET reported for the Barcelona FIR (LECB) :
 
Embedded thunderstorms
LECB SIGMET 2 VALID 251500/251700 LEVA
LECB BARCELONA FIR/UIR EMBD TS OBS AT 1457Z N OF LINE N4150 E00020 - N4130 E003 TOP FL400 MOV NE NC=



MET'MAP, your aeronautical weather chart ! - Copyright ORBIFLY December 2007 - Disclaimer

ORBIFLY MET'MAP TEAM :

Programming & Development : Alexandra Zaïnal
Concept & Development : Baudouin d'Aumeries
Co-Development & Prog : Marc-Olivier Méhu
Technical & hardware support : Manuel Goepfert

Contact : metmap@orbifly.com




SOURCES & CREDITS :

   NOAA